Terminal Aerodrome Forecast
Issued by NWS

Home | Current Version | Previous Version | Text Only | Print | Product List | Glossary On
Versions: 1 2 3 4 5 6 7 8 9 10 11 12 13 14 15 16 17 18
792
FTUS46 KMFR 041736
TAFLMT
TAF
KLMT 041736Z 0418/0518 22009KT P6SM SCT020 OVC040
     FM042100 28012KT P6SM -SHRASN SCT015 BKN030 OVC050
     FM050300 29007KT P6SM SCT025 SCT035
     FM051200 20005KT 6SM BR SCT010=

USA.gov is the U.S. government's official web portal to all federal, state and local government web resources and services.